Time;durP1;ratioP1;P1;durP2;ratioP2;P2;SDS_P1;SDS_P2;PMS_P1;PMS_P2;Temp;Humidity;BMP_temperature;BMP_pressure;BME280_temperature;BME280_humidity;BME280_pressure;Samples;Min_cycle;Max_cycle;Signal;HPM_P1;HPM_P2
2021/03/06 00:01:20;;;;;;;18.02;10.65;;;;;;;10.22;34.55;94801.75;5135925;23;20458;-72
2021/03/06 00:03:21;;;;;;;21.98;10.50;;;;;;;10.24;34.61;94806.81;5138282;23;20075;-71
2021/03/06 00:05:24;;;;;;;16.00;10.57;;;;;;;10.22;34.30;94801.75;5138341;23;20069;-71
2021/03/06 00:07:26;;;;;;;16.05;9.95;;;;;;;10.23;34.78;94798.13;5138641;23;20025;-71
2021/03/06 00:09:27;;;;;;;15.05;10.18;;;;;;;10.21;34.71;94805.31;5137578;23;20032;-70
2021/03/06 00:11:28;;;;;;;16.92;10.35;;;;;;;10.17;34.46;94803.97;5137627;23;20047;-69
2021/03/06 00:13:29;;;;;;;20.15;10.88;;;;;;;10.20;34.59;94808.09;5138214;23;20074;-71
2021/03/06 00:15:31;;;;;;;20.98;10.15;;;;;;;10.17;34.84;94806.59;5110979;23;20020;-70
2021/03/06 00:17:33;;;;;;;17.23;10.45;;;;;;;10.16;34.84;94807.59;5157275;23;20033;-82
2021/03/06 00:19:34;;;;;;;15.73;9.98;;;;;;;10.14;34.78;94808.72;5098510;23;20407;-85
2021/03/06 00:21:36;;;;;;;13.85;10.05;;;;;;;10.10;34.95;94816.03;5107009;23;683712;-85
2021/03/06 00:23:37;;;;;;;18.27;9.65;;;;;;;10.12;35.04;94814.09;5094495;23;20613;-84
2021/03/06 00:25:38;;;;;;;15.82;9.77;;;;;;;10.11;35.56;94819.47;5121638;23;20025;-84
2021/03/06 00:27:39;;;;;;;15.82;10.18;;;;;;;10.12;35.63;94813.28;5123745;23;20025;-84
2021/03/06 00:29:40;;;;;;;18.08;9.15;;;;;;;10.15;35.25;94819.03;5104686;23;20430;-83
2021/03/06 00:31:42;;;;;;;17.27;9.50;;;;;;;10.15;35.38;94812.97;5121494;23;20383;-83
2021/03/06 00:33:43;;;;;;;15.48;8.95;;;;;;;10.15;35.34;94813.81;5089376;23;20030;-71
2021/03/06 00:35:45;;;;;;;14.32;8.52;;;;;;;10.09;35.61;94819.66;5113628;23;20462;-71
2021/03/06 00:37:46;;;;;;;16.50;9.60;;;;;;;10.06;35.95;94806.84;5088875;23;20030;-71
2021/03/06 00:39:47;;;;;;;15.60;8.88;;;;;;;10.03;36.50;94810.59;5086763;23;20056;-72
2021/03/06 00:41:48;;;;;;;16.20;10.07;;;;;;;9.98;36.59;94817.25;5114178;23;20025;-72
2021/03/06 00:43:50;;;;;;;20.15;9.82;;;;;;;9.96;36.59;94817.44;5113268;23;20039;-72
2021/03/06 00:45:51;;;;;;;15.73;9.20;;;;;;;9.98;37.05;94812.88;5112464;23;20032;-71
2021/03/06 00:47:52;;;;;;;18.58;9.93;;;;;;;10.00;37.08;94817.94;5113575;23;20031;-71
2021/03/06 00:49:53;;;;;;;15.75;9.15;;;;;;;9.99;37.46;94805.84;5063328;23;20034;-71
2021/03/06 00:51:54;;;;;;;16.48;10.05;;;;;;;9.96;37.26;94816.59;5114307;23;20035;-74
2021/03/06 00:53:55;;;;;;;15.65;9.38;;;;;;;9.87;38.28;94810.47;5088380;23;20024;-72
2021/03/06 00:55:57;;;;;;;13.88;9.57;;;;;;;9.91;38.70;94808.38;5113763;23;20025;-72
2021/03/06 00:57:58;;;;;;;19.27;10.07;;;;;;;9.94;38.29;94808.91;5087320;23;20028;-71
2021/03/06 00:59:59;;;;;;;18.33;9.40;;;;;;;9.98;38.36;94810.25;5064421;23;20495;-71
2021/03/06 01:02:00;;;;;;;18.33;10.32;;;;;;;9.98;38.69;94805.03;5061066;23;20030;-70
2021/03/06 01:04:02;;;;;;;18.15;10.18;;;;;;;9.96;39.18;94812.19;5088501;23;20021;-71
2021/03/06 01:06:05;;;;;;;14.57;9.73;;;;;;;9.93;39.25;94803.81;5114098;23;20514;-71
2021/03/06 01:08:06;;;;;;;17.33;10.45;;;;;;;9.97;39.31;94807.78;5062701;23;20051;-71
2021/03/06 01:10:23;;;;;;;14.52;9.32;;;;;;;9.94;39.53;94795.81;5114134;23;20021;-71
2021/03/06 01:12:24;;;;;;;15.80;9.98;;;;;;;9.88;39.58;94804.28;5088109;23;20132;-71
2021/03/06 01:14:26;;;;;;;15.27;9.57;;;;;;;9.92;40.01;94797.78;5114266;23;20020;-71
2021/03/06 01:16:27;;;;;;;13.63;9.05;;;;;;;9.89;40.17;94800.69;5111469;23;20028;-70
2021/03/06 01:18:29;;;;;;;14.43;9.73;;;;;;;9.83;40.51;94804.75;5088322;23;20106;-71
2021/03/06 01:20:31;;;;;;;14.68;9.85;;;;;;;9.78;40.35;94804.34;5114375;23;20044;-71
2021/03/06 01:22:33;;;;;;;18.30;9.75;;;;;;;9.73;40.86;94801.38;5107582;23;20478;-71
2021/03/06 01:24:36;;;;;;;15.20;9.85;;;;;;;9.69;40.71;94797.41;5113163;23;20517;-71
2021/03/06 01:26:37;;;;;;;17.42;9.95;;;;;;;9.71;41.11;94803.31;5136984;23;20020;-71
2021/03/06 01:28:38;;;;;;;16.10;9.98;;;;;;;9.70;41.03;94796.47;5113240;23;20033;-72
2021/03/06 01:30:40;;;;;;;17.00;10.50;;;;;;;9.72;40.90;94797.13;5137624;23;20028;-71
2021/03/06 01:32:41;;;;;;;19.27;9.73;;;;;;;9.74;40.94;94795.16;5111052;23;20032;-71
2021/03/06 01:34:42;;;;;;;18.92;10.52;;;;;;;9.77;40.85;94801.91;5112261;23;20335;-71
2021/03/06 01:36:43;;;;;;;16.40;10.35;;;;;;;9.68;40.94;94798.41;5138685;23;20094;-71
2021/03/06 01:38:45;;;;;;;15.35;10.32;;;;;;;9.63;40.77;94798.03;5142210;23;20025;-84
2021/03/06 01:40:46;;;;;;;15.07;10.43;;;;;;;9.63;41.01;94803.25;5144123;23;20020;-85
2021/03/06 01:42:47;;;;;;;19.33;10.73;;;;;;;9.62;40.88;94794.59;5121335;23;20091;-82
2021/03/06 01:44:49;;;;;;;16.40;10.10;;;;;;;9.56;41.07;94797.00;5103517;23;20018;-84
2021/03/06 01:46:50;;;;;;;14.73;9.98;;;;;;;9.53;41.38;94795.50;5143967;23;20041;-84
2021/03/06 01:48:51;;;;;;;16.73;10.73;;;;;;;9.49;41.62;94799.38;5145542;23;20024;-84
2021/03/06 01:50:53;;;;;;;19.35;11.43;;;;;;;9.42;41.57;94803.56;5122204;23;20435;-83
2021/03/06 01:52:56;;;;;;;14.02;10.85;;;;;;;9.37;42.24;94801.38;5144449;23;20028;-83
2021/03/06 01:54:57;;;;;;;16.25;10.43;;;;;;;9.37;42.31;94806.63;5119155;23;20024;-83
2021/03/06 01:56:58;;;;;;;14.13;10.52;;;;;;;9.38;42.14;94803.03;5143978;23;20389;-83
2021/03/06 01:59:00;;;;;;;14.68;9.52;;;;;;;9.36;42.36;94804.16;5146436;23;20024;-83
2021/03/06 02:01:02;;;;;;;16.85;11.10;;;;;;;9.36;42.60;94812.84;5117597;23;20036;-83
2021/03/06 02:03:04;;;;;;;13.90;9.70;;;;;;;9.30;42.96;94818.66;5118895;23;20040;-83
2021/03/06 02:05:06;;;;;;;19.08;11.45;;;;;;;9.33;42.88;94815.72;5117013;23;20027;-85
2021/03/06 02:07:07;;;;;;;15.68;10.25;;;;;;;9.31;42.94;94814.22;5118830;23;20394;-83
2021/03/06 02:09:08;;;;;;;16.55;10.27;;;;;;;9.30;43.05;94808.19;5145309;23;20383;-84
2021/03/06 02:11:10;;;;;;;17.65;10.02;;;;;;;9.19;43.48;94808.41;5118682;23;20021;-83
2021/03/06 02:13:26;;;;;;;17.58;10.15;;;;;;;9.23;43.08;94810.56;5118158;23;20029;-84
2021/03/06 02:15:45;;;;;;;16.30;10.40;;;;;;;9.21;42.93;94811.69;5118717;23;20017;-83
2021/03/06 02:17:58;;;;;;;18.23;10.93;;;;;;;9.12;43.33;94809.94;5093771;23;20045;-85
2021/03/06 02:20:36;;;;;;;18.98;10.82;;;;;;;9.16;43.30;94808.69;5119922;23;20024;-85
2021/03/06 02:22:48;;;;;;;16.02;10.45;;;;;;;9.16;43.54;94803.47;5124832;23;20021;-83
2021/03/06 02:25:15;;;;;;;14.90;10.73;;;;;;;9.01;43.97;94805.75;5122089;23;20017;-83
2021/03/06 02:27:31;;;;;;;14.63;10.20;;;;;;;8.99;44.39;94805.06;5094303;23;20028;-84
2021/03/06 02:30:00;;;;;;;14.40;10.57;;;;;;;8.98;44.61;94806.88;5121277;23;20465;-84
2021/03/06 02:32:07;;;;;;;13.98;10.10;;;;;;;8.98;44.58;94814.72;5089947;23;20659;-86
2021/03/06 02:34:13;;;;;;;18.50;9.90;;;;;;;8.97;44.32;94810.47;5070681;23;20475;-84
2021/03/06 02:36:16;;;;;;;16.90;10.20;;;;;;;8.88;45.29;94816.56;5121844;23;20021;-82
2021/03/06 02:38:18;;;;;;;18.17;10.75;;;;;;;8.90;44.94;94812.00;5095523;23;20108;-84
2021/03/06 02:40:20;;;;;;;17.15;10.85;;;;;;;8.96;45.15;94814.03;5094334;23;20041;-84
2021/03/06 02:42:24;;;;;;;16.73;10.88;;;;;;;9.02;44.95;94816.06;5097279;23;20028;-83
2021/03/06 02:44:29;;;;;;;15.18;10.43;;;;;;;8.96;45.09;94815.84;5097767;23;20022;-82
2021/03/06 02:46:31;;;;;;;15.98;10.68;;;;;;;8.95;45.33;94817.63;5069806;23;20030;-82
2021/03/06 02:48:34;;;;;;;14.88;9.48;;;;;;;8.92;45.55;94819.69;5094600;23;20044;-83
2021/03/06 02:50:36;;;;;;;14.60;10.57;;;;;;;8.92;45.68;94823.13;5120563;23;20021;-83
2021/03/06 02:52:38;;;;;;;19.98;10.77;;;;;;;8.89;45.53;94822.63;5095651;23;20025;-83
2021/03/06 02:54:39;;;;;;;19.90;10.88;;;;;;;8.76;46.03;94822.97;5070867;23;20058;-84
2021/03/06 02:56:40;;;;;;;14.82;10.65;;;;;;;8.70;46.20;94826.97;5096651;23;20056;-83
2021/03/06 02:59:00;;;;;;;14.80;10.55;;;;;;;8.74;46.16;94827.50;5106523;23;20271;-83
2021/03/06 03:01:07;;;;;;;16.30;10.57;;;;;;;8.82;45.92;94827.59;5094105;23;20073;-85
2021/03/06 03:03:38;;;;;;;17.50;11.15;;;;;;;8.86;46.02;94838.56;5068237;23;20072;-85
2021/03/06 03:06:00;;;;;;;17.08;10.93;;;;;;;8.85;46.30;94831.72;5104789;23;20071;-82
2021/03/06 03:08:11;;;;;;;16.92;10.88;;;;;;;8.82;46.24;94832.84;5120215;23;20322;-84
2021/03/06 03:10:14;;;;;;;15.48;11.07;;;;;;;8.85;46.20;94837.75;5094357;23;20028;-85
2021/03/06 03:12:23;;;;;;;18.67;12.43;;;;;;;8.81;45.77;94839.81;5093310;23;20073;-84
2021/03/06 03:14:32;;;;;;;18.95;10.65;;;;;;;8.86;46.04;94843.78;5094457;23;20026;-85
2021/03/06 03:16:36;;;;;;;16.33;10.70;;;;;;;8.86;46.42;94849.00;5119437;23;20505;-83
2021/03/06 03:18:59;;;;;;;16.10;10.95;;;;;;;8.88;45.42;94853.13;5097294;23;20021;-84
2021/03/06 03:21:01;;;;;;;18.95;11.15;;;;;;;8.86;46.17;94854.25;5070300;23;20053;-83
2021/03/06 03:23:06;;;;;;;18.50;10.77;;;;;;;8.82;46.16;94866.78;5118318;23;20021;-83
2021/03/06 03:25:08;;;;;;;20.70;11.75;;;;;;;8.82;46.22;94861.56;5143733;23;20367;-85
2021/03/06 03:27:11;;;;;;;16.88;11.05;;;;;;;8.47;46.79;94868.25;5119264;23;20075;-84
2021/03/06 03:29:13;;;;;;;19.27;11.75;;;;;;;8.16;47.57;94880.69;5119661;23;20042;-82
2021/03/06 03:31:14;;;;;;;16.08;10.98;;;;;;;7.95;48.42;94875.63;5148143;23;20128;-85
2021/03/06 03:33:16;;;;;;;18.55;11.32;;;;;;;7.99;48.47;94866.56;5122164;23;20025;-82
2021/03/06 03:35:20;;;;;;;19.63;11.77;;;;;;;7.92;48.46;94873.31;5145214;23;20079;-84
2021/03/06 03:37:22;;;;;;;18.27;10.77;;;;;;;8.00;48.70;94882.06;5119525;23;20064;-85
2021/03/06 03:39:23;;;;;;;17.17;11.20;;;;;;;8.14;48.11;94875.59;5119695;23;20036;-84
2021/03/06 03:41:25;;;;;;;19.30;11.27;;;;;;;8.30;47.31;94879.41;5120352;23;20025;-83
2021/03/06 03:43:27;;;;;;;18.15;11.25;;;;;;;8.41;47.59;94876.69;5117798;23;20056;-85
2021/03/06 03:45:29;;;;;;;23.77;11.90;;;;;;;8.35;47.60;94874.59;5118438;23;20031;-83
2021/03/06 03:47:32;;;;;;;18.70;11.70;;;;;;;8.35;47.77;94882.44;5118320;23;20024;-83
2021/03/06 03:49:33;;;;;;;18.63;10.88;;;;;;;8.36;47.32;94884.88;5093271;23;20022;-82
2021/03/06 03:51:36;;;;;;;14.40;10.77;;;;;;;8.37;47.55;94890.94;5143828;23;20028;-85
2021/03/06 03:53:38;;;;;;;19.85;11.80;;;;;;;8.44;47.48;94886.84;5117817;23;20025;-84
2021/03/06 03:55:54;;;;;;;19.15;11.73;;;;;;;8.50;47.39;94885.47;5121676;23;20029;-84
2021/03/06 03:57:55;;;;;;;17.92;11.60;;;;;;;8.51;47.44;94887.09;5117831;23;20095;-83
2021/03/06 03:59:59;;;;;;;17.50;11.40;;;;;;;8.50;47.42;94898.50;5123068;23;20025;-86
2021/03/06 04:02:00;;;;;;;;;;;;;;;8.49;47.50;94899.47;5122377;23;20100;-86
2021/03/06 04:04:01;;;;;;;17.10;11.27;;;;;;;8.45;47.73;94903.31;5146108;23;19916;-83
2021/03/06 04:06:04;;;;;;;17.77;11.63;;;;;;;8.44;47.87;94902.50;5123264;23;20048;-82
2021/03/06 04:08:05;;;;;;;18.15;10.98;;;;;;;8.40;48.30;94906.31;5133966;23;20402;-82
2021/03/06 04:10:07;;;;;;;19.50;11.48;;;;;;;8.43;48.58;94907.84;5135440;23;20031;-83
2021/03/06 04:12:09;;;;;;;17.02;11.57;;;;;;;8.43;48.25;94913.88;5153011;23;20096;-83
2021/03/06 04:14:10;;;;;;;17.17;12.57;;;;;;;8.40;48.37;94914.16;5104930;23;20522;-83
2021/03/06 04:16:11;;;;;;;17.70;11.77;;;;;;;8.45;48.84;94919.78;5146230;23;20390;-85
2021/03/06 04:18:12;;;;;;;21.60;11.95;;;;;;;8.45;48.79;94917.19;5146103;23;20042;-84
2021/03/06 04:20:16;;;;;;;17.23;11.55;;;;;;;8.40;49.44;94916.75;5145788;23;20033;-84
2021/03/06 04:22:17;;;;;;;18.73;11.80;;;;;;;8.43;49.03;94920.91;5127775;23;20076;-85
2021/03/06 04:24:18;;;;;;;15.50;11.02;;;;;;;8.38;49.27;94922.13;5121735;23;20092;-85
2021/03/06 04:26:23;;;;;;;20.20;11.63;;;;;;;8.40;49.77;94916.75;5121432;23;20052;-84
2021/03/06 04:28:24;;;;;;;16.58;11.75;;;;;;;8.45;49.79;94918.97;5120965;23;20031;-85
2021/03/06 04:30:27;;;;;;;17.10;12.40;;;;;;;8.46;49.58;94923.25;5094140;23;20029;-88
2021/03/06 04:32:28;;;;;;;22.38;12.38;;;;;;;8.42;50.34;94917.47;5121110;23;20100;-83
2021/03/06 04:34:29;;;;;;;18.48;12.10;;;;;;;8.44;50.23;94915.56;5120914;23;20017;-85
2021/03/06 04:36:31;;;;;;;16.85;12.25;;;;;;;8.31;51.20;94928.06;5070778;23;20026;-85
2021/03/06 04:38:32;;;;;;;22.77;12.32;;;;;;;8.22;51.59;94927.09;5092948;23;20037;-84
2021/03/06 04:40:33;;;;;;;20.88;12.77;;;;;;;8.24;51.94;94937.38;5091681;23;20534;-84
2021/03/06 04:42:35;;;;;;;21.45;12.40;;;;;;;8.12;51.96;94923.66;5092990;23;20025;-83
2021/03/06 04:44:36;;;;;;;21.13;13.18;;;;;;;8.14;52.15;94925.19;5094227;23;20386;-83
2021/03/06 04:46:37;;;;;;;19.20;13.07;;;;;;;8.15;52.19;94929.44;5093934;23;20025;-86
2021/03/06 04:48:38;;;;;;;19.23;13.10;;;;;;;7.94;52.82;94939.19;5094659;23;20022;-85
2021/03/06 04:50:40;;;;;;;20.75;13.90;;;;;;;7.98;52.96;94936.19;5122985;23;20072;-87
2021/03/06 04:52:41;;;;;;;18.23;12.25;;;;;;;8.06;52.09;94939.88;5125081;23;20021;-85
2021/03/06 04:54:42;;;;;;;20.98;12.80;;;;;;;7.98;52.77;94938.78;5095958;23;20028;-86
2021/03/06 04:56:44;;;;;;;19.25;13.55;;;;;;;8.00;53.03;94941.22;5096082;23;20034;-84
2021/03/06 04:58:45;;;;;;;20.63;13.65;;;;;;;8.05;52.68;94946.06;5121384;23;20032;-85
2021/03/06 05:00:46;;;;;;;21.35;13.93;;;;;;;8.10;52.56;94947.28;5120709;23;20042;-84
2021/03/06 05:02:48;;;;;;;22.58;13.88;;;;;;;7.98;53.22;94944.00;5119055;23;20040;-84
2021/03/06 05:04:49;;;;;;;22.67;14.73;;;;;;;7.99;52.45;94950.03;5119328;23;20017;-84
2021/03/06 05:06:50;;;;;;;23.27;13.00;;;;;;;7.94;53.01;94955.66;5094624;23;20025;-86
2021/03/06 05:08:55;;;;;;;21.88;14.40;;;;;;;7.84;53.38;94960.03;5093930;23;20026;-84
2021/03/06 05:10:56;;;;;;;24.95;13.90;;;;;;;7.74;53.83;94972.25;5119020;23;20031;-86
2021/03/06 05:12:57;;;;;;;20.13;14.60;;;;;;;7.80;53.64;94975.13;5123077;23;20056;-83
2021/03/06 05:14:59;;;;;;;24.15;15.00;;;;;;;7.68;54.37;94978.84;5129342;23;20102;-84
2021/03/06 05:17:01;;;;;;;21.25;14.00;;;;;;;7.53;54.86;94985.41;5130158;23;20021;-86
2021/03/06 05:19:03;;;;;;;21.58;14.60;;;;;;;7.41;55.61;94999.47;5096513;23;20026;-85
2021/03/06 05:21:04;;;;;;;22.42;15.07;;;;;;;7.50;55.58;95001.28;5070562;23;20029;-85
2021/03/06 05:23:06;;;;;;;25.98;16.85;;;;;;;6.81;58.40;95012.38;5144262;23;20030;-85
2021/03/06 05:25:08;;;;;;;41.67;18.65;;;;;;;6.22;61.00;95019.78;5119376;23;20073;-84
2021/03/06 05:27:09;;;;;;;26.70;17.20;;;;;;;6.11;61.74;95036.25;5124526;23;20024;-85
2021/03/06 05:29:10;;;;;;;27.95;17.33;;;;;;;6.05;62.12;95028.13;5153254;23;20403;-83
2021/03/06 05:31:12;;;;;;;32.33;19.15;;;;;;;6.15;61.83;95029.84;5118146;23;20028;-86
2021/03/06 05:33:14;;;;;;;32.55;18.73;;;;;;;6.45;61.34;95043.09;5092636;23;20343;-85
2021/03/06 05:35:15;;;;;;;29.88;18.02;;;;;;;6.68;60.98;95031.59;5092198;23;20018;-86
2021/03/06 05:37:17;;;;;;;29.65;19.23;;;;;;;6.86;60.69;95033.63;5143310;23;20020;-84
2021/03/06 05:39:19;;;;;;;32.63;22.20;;;;;;;6.79;62.59;95035.94;5117469;23;20025;-84
2021/03/06 05:41:20;;;;;;;32.15;23.30;;;;;;;6.75;64.13;95047.53;5119409;23;20021;-85
2021/03/06 05:43:21;;;;;;;33.72;24.20;;;;;;;6.67;65.05;95042.16;5120641;23;20035;-84
2021/03/06 05:45:23;;;;;;;38.08;24.50;;;;;;;6.69;64.86;95053.25;5145133;23;20027;-82
2021/03/06 05:47:24;;;;;;;33.70;25.95;;;;;;;6.63;65.48;95059.00;5094550;23;20031;-86
2021/03/06 05:49:26;;;;;;;37.17;25.23;;;;;;;6.46;66.40;95066.41;5145259;23;20025;-84
2021/03/06 05:51:28;;;;;;;34.60;25.33;;;;;;;6.53;66.27;95071.91;5119422;23;20091;-85
2021/03/06 05:53:29;;;;;;;33.42;24.10;;;;;;;6.33;66.82;95078.75;5120073;23;20029;-85
2021/03/06 05:55:31;;;;;;;31.45;24.48;;;;;;;6.44;66.56;95086.50;5147665;23;20024;-85
2021/03/06 05:57:34;;;;;;;32.78;24.95;;;;;;;6.50;66.56;95080.81;5096003;23;20033;-85
2021/03/06 05:59:35;;;;;;;36.47;24.23;;;;;;;6.71;66.16;95087.81;5121060;23;20028;-85
2021/03/06 06:01:38;;;;;;;34.10;24.35;;;;;;;6.66;66.72;95095.19;5093635;23;20354;-85
2021/03/06 06:03:40;;;;;;;30.02;22.25;;;;;;;6.59;66.67;95101.84;5145360;23;20024;-85
2021/03/06 06:05:42;;;;;;;28.60;21.90;;;;;;;6.66;66.94;95105.59;5094966;23;20382;-85
2021/03/06 06:07:44;;;;;;;29.58;20.98;;;;;;;6.55;66.52;95107.28;5146337;23;20020;-84
2021/03/06 06:09:45;;;;;;;22.88;17.58;;;;;;;6.32;67.10;95118.72;5145865;23;20027;-87
2021/03/06 06:11:47;;;;;;;23.50;17.10;;;;;;;6.21;67.16;95126.56;5147785;23;20051;-86
2021/03/06 06:13:57;;;;;;;20.60;15.85;;;;;;;6.08;67.11;95122.31;5148381;23;20047;-84
2021/03/06 06:15:59;;;;;;;19.00;15.27;;;;;;;5.57;68.07;95147.97;5140673;23;20021;-70
2021/03/06 06:18:00;;;;;;;19.52;13.95;;;;;;;5.07;69.96;95156.03;5141061;23;20048;-71
2021/03/06 06:20:02;;;;;;;15.98;12.27;;;;;;;4.99;69.13;95153.19;5140278;23;20447;-70
2021/03/06 06:22:24;;;;;;;16.67;13.05;;;;;;;4.78;69.98;95164.22;5088804;23;20030;-71
2021/03/06 06:24:25;;;;;;;15.30;12.70;;;;;;;4.37;71.73;95168.06;5140886;23;20021;-72
2021/03/06 06:26:27;;;;;;;16.70;13.27;;;;;;;4.28;70.73;95185.09;5140018;23;20024;-70
2021/03/06 06:28:28;;;;;;;14.30;12.10;;;;;;;4.15;71.43;95178.28;5113523;23;20705;-71
2021/03/06 06:30:30;;;;;;;17.85;13.15;;;;;;;4.20;71.80;95182.22;5139018;23;20031;-72
2021/03/06 06:32:42;;;;;;;16.00;12.38;;;;;;;4.41;69.80;95195.44;5112362;23;20032;-71
2021/03/06 06:35:00;;;;;;;12.98;9.95;;;;;;;4.35;69.33;95198.47;5140504;23;20048;-72
2021/03/06 06:37:14;;;;;;;10.30;8.63;;;;;;;4.42;68.01;95212.63;5140304;23;20052;-71
2021/03/06 06:39:30;;;;;;;12.77;9.20;;;;;;;4.61;67.57;95214.75;5113366;23;20025;-72
2021/03/06 06:42:01;;;;;;;10.70;9.15;;;;;;;4.78;67.57;95218.72;5140342;23;20032;-73
2021/03/06 06:44:06;;;;;;;9.95;7.95;;;;;;;4.80;66.42;95235.03;5110910;23;20402;-73
2021/03/06 06:46:08;;;;;;;9.82;8.45;;;;;;;4.76;65.86;95230.16;5111657;23;20021;-72
2021/03/06 06:48:10;;;;;;;11.32;7.75;;;;;;;4.80;66.00;95248.00;5113820;23;20025;-72
2021/03/06 06:50:13;;;;;;;10.38;8.07;;;;;;;5.00;65.59;95258.72;5113488;23;20276;-72
2021/03/06 06:52:16;;;;;;;7.90;6.43;;;;;;;5.01;64.39;95261.22;5114796;23;20029;-73
2021/03/06 06:54:17;;;;;;;7.60;6.47;;;;;;;4.85;64.42;95269.25;5112961;23;20021;-72
2021/03/06 06:56:25;;;;;;;8.77;7.10;;;;;;;4.87;64.58;95275.16;5139509;23;20405;-71
2021/03/06 06:58:35;;;;;;;7.00;5.88;;;;;;;4.89;65.13;95268.09;5114135;23;20272;-73
2021/03/06 07:00:36;;;;;;;6.80;5.70;;;;;;;4.45;64.80;95298.06;5138897;23;20020;-69
2021/03/06 07:02:56;;;;;;;6.53;5.35;;;;;;;4.52;65.26;95290.66;5138521;23;20339;-72
2021/03/06 07:05:00;;;;;;;6.55;5.45;;;;;;;4.61;65.41;95297.78;5112503;23;20017;-71
2021/03/06 07:07:02;;;;;;;9.63;7.10;;;;;;;4.60;65.55;95300.50;5140319;23;20020;-72
2021/03/06 07:09:13;;;;;;;8.13;5.15;;;;;;;4.38;65.90;95301.16;5140691;23;20446;-72
2021/03/06 07:11:27;;;;;;;6.93;5.68;;;;;;;4.41;66.02;95298.34;5139085;23;20474;-72
2021/03/06 07:13:40;;;;;;;6.20;5.00;;;;;;;4.59;65.27;95304.03;5113340;23;20025;-73
2021/03/06 07:15:42;;;;;;;5.70;5.10;;;;;;;4.64;64.98;95305.34;5138406;23;20025;-71
2021/03/06 07:17:45;;;;;;;7.20;5.95;;;;;;;4.67;65.32;95304.34;5112873;23;20024;-74
2021/03/06 07:19:46;;;;;;;9.65;6.70;;;;;;;4.58;65.18;95312.75;5139951;23;20353;-72
2021/03/06 07:21:51;;;;;;;11.23;7.20;;;;;;;4.55;66.57;95312.97;5112495;23;20021;-71
2021/03/06 07:23:52;;;;;;;9.73;7.13;;;;;;;4.67;65.71;95315.53;5140433;23;20477;-73
2021/03/06 07:25:55;;;;;;;7.35;5.90;;;;;;;3.81;68.50;95325.78;5138620;23;20017;-72
2021/03/06 07:27:56;;;;;;;8.43;6.63;;;;;;;3.40;69.86;95337.09;5113477;23;20458;-72
2021/03/06 07:29:58;;;;;;;7.75;6.75;;;;;;;3.34;70.63;95347.88;5112971;23;20083;-72
2021/03/06 07:32:01;;;;;;;12.15;9.32;;;;;;;3.16;71.39;95335.19;5110139;23;20083;-71
2021/03/06 07:34:02;;;;;;;10.65;8.20;;;;;;;2.74;72.19;95359.41;5114024;23;20104;-73
2021/03/06 07:36:05;;;;;;;8.20;6.20;;;;;;;2.67;72.15;95364.13;5140191;23;20638;-72
2021/03/06 07:38:08;;;;;;;10.77;6.45;;;;;;;2.51;73.94;95353.06;5088593;23;20026;-71
2021/03/06 07:40:12;;;;;;;7.50;6.20;;;;;;;2.37;74.75;95364.25;5139242;23;20074;-73
2021/03/06 07:42:29;;;;;;;7.60;5.50;;;;;;;2.41;75.02;95376.91;5139057;23;20071;-72
2021/03/06 07:44:31;;;;;;;9.93;6.72;;;;;;;2.48;75.89;95373.94;5139917;23;20023;-72
2021/03/06 07:46:37;;;;;;;9.77;7.30;;;;;;;2.28;76.46;95373.41;5110687;23;20103;-69
2021/03/06 07:48:43;;;;;;;9.50;6.55;;;;;;;2.36;76.92;95368.56;5140137;23;20051;-73
2021/03/06 07:50:47;;;;;;;8.75;5.55;;;;;;;2.71;76.29;95364.75;5113230;23;20140;-71
2021/03/06 07:52:49;;;;;;;7.13;5.30;;;;;;;2.84;74.78;95373.44;5113470;23;20056;-71
2021/03/06 07:54:51;;;;;;;7.72;5.22;;;;;;;3.07;73.63;95372.81;5139190;23;20079;-71
2021/03/06 07:56:54;;;;;;;8.00;5.32;;;;;;;3.23;73.61;95367.50;5088511;23;20025;-71
2021/03/06 07:58:59;;;;;;;7.93;5.22;;;;;;;3.28;73.11;95362.84;5113755;23;20020;-73
2021/03/06 08:01:01;;;;;;;7.18;4.95;;;;;;;3.42;72.03;95366.31;5137902;23;20028;-72
2021/03/06 08:03:30;;;;;;;6.43;4.15;;;;;;;3.47;72.31;95378.03;5139005;23;20069;-72
2021/03/06 08:05:55;;;;;;;6.07;4.38;;;;;;;3.55;71.98;95371.53;5112865;23;20053;-76
2021/03/06 08:07:56;;;;;;;7.47;4.20;;;;;;;3.45;71.19;95366.13;5139104;23;20425;-71
2021/03/06 08:09:59;;;;;;;6.00;3.97;;;;;;;3.42;71.49;95381.84;5112476;23;20021;-71
2021/03/06 08:12:00;;;;;;;7.82;3.30;;;;;;;3.58;70.99;95384.28;5113304;23;20024;-71
2021/03/06 08:14:05;;;;;;;4.25;3.20;;;;;;;3.64;70.77;95386.50;5112812;23;20407;-71
2021/03/06 08:16:22;;;;;;;6.03;3.60;;;;;;;3.62;70.64;95396.13;5138230;23;20047;-71
2021/03/06 08:18:31;;;;;;;5.63;3.50;;;;;;;3.51;70.27;95395.97;5138631;23;20020;-73
2021/03/06 08:20:32;;;;;;;4.25;3.03;;;;;;;3.51;69.55;95412.38;5139327;23;20024;-70
2021/03/06 08:22:34;;;;;;;4.47;3.42;;;;;;;3.45;71.05;95412.75;5113029;23;20032;-70
2021/03/06 08:24:35;;;;;;;5.82;3.08;;;;;;;3.41;71.29;95406.09;5112988;23;20621;-72
2021/03/06 08:26:36;;;;;;;4.93;3.60;;;;;;;3.31;71.40;95407.59;5138604;23;20096;-72
2021/03/06 08:28:37;;;;;;;5.18;3.88;;;;;;;3.18;71.72;95415.31;5138967;23;20032;-71
2021/03/06 08:30:39;;;;;;;5.82;3.50;;;;;;;3.12;72.04;95429.50;5137832;23;20087;-73
2021/03/06 08:32:40;;;;;;;5.82;3.67;;;;;;;2.98;72.56;95416.56;5112220;23;20032;-71
2021/03/06 08:34:45;;;;;;;6.18;3.70;;;;;;;2.96;72.62;95428.78;5139722;23;20027;-73
2021/03/06 08:36:46;;;;;;;5.50;4.22;;;;;;;3.04;71.73;95418.78;5112868;23;20335;-72
2021/03/06 08:38:48;;;;;;;4.22;3.22;;;;;;;2.97;71.08;95420.06;5138882;23;20092;-71
2021/03/06 08:40:52;;;;;;;6.97;3.70;;;;;;;3.02;70.69;95425.81;5112568;23;20025;-73
2021/03/06 08:42:55;;;;;;;6.88;4.13;;;;;;;2.95;70.70;95425.38;5139151;23;20131;-72
2021/03/06 08:45:26;;;;;;;6.30;4.03;;;;;;;2.81;70.03;95428.78;5139674;23;20017;-72
2021/03/06 08:47:33;;;;;;;5.55;3.38;;;;;;;2.93;69.83;95431.56;5137334;23;20036;-76
2021/03/06 08:49:36;;;;;;;7.32;4.63;;;;;;;2.84;70.24;95448.50;5138829;23;20533;-72
2021/03/06 08:51:37;;;;;;;4.95;3.00;;;;;;;2.77;69.45;95450.59;5139941;23;20510;-74
2021/03/06 08:53:39;;;;;;;5.30;3.55;;;;;;;2.70;69.99;95443.31;5138954;23;20059;-71
2021/03/06 08:55:42;;;;;;;5.75;4.43;;;;;;;2.79;69.90;95450.50;5140201;23;20458;-73
2021/03/06 08:57:43;;;;;;;4.55;3.40;;;;;;;2.41;70.97;95446.72;5138124;23;20020;-73
2021/03/06 08:59:44;;;;;;;7.28;3.35;;;;;;;2.58;70.57;95461.25;5138432;23;20055;-70
2021/03/06 09:01:46;;;;;;;4.38;3.38;;;;;;;2.56;70.28;95451.88;5137698;23;20020;-71
2021/03/06 09:03:48;;;;;;;6.45;3.75;;;;;;;2.27;71.07;95456.22;5112259;23;20072;-73
2021/03/06 09:06:00;;;;;;;6.53;3.22;;;;;;;2.44;70.58;95453.47;5112921;23;20028;-73
2021/03/06 09:08:02;;;;;;;6.15;3.35;;;;;;;2.60;70.53;95477.50;5138547;23;20071;-71
2021/03/06 09:10:12;;;;;;;5.18;3.80;;;;;;;2.64;69.57;95468.63;5138958;23;20024;-72
2021/03/06 09:12:13;;;;;;;5.40;3.83;;;;;;;2.82;69.76;95474.47;5139720;23;20419;-71
2021/03/06 09:14:14;;;;;;;6.22;3.78;;;;;;;2.97;69.67;95480.47;5138879;23;20032;-70
2021/03/06 09:16:16;;;;;;;6.32;4.05;;;;;;;2.91;69.92;95474.81;5109659;23;20029;-72
2021/03/06 09:18:20;;;;;;;6.18;4.65;;;;;;;2.93;70.45;95478.97;5140588;23;20075;-85
2021/03/06 09:20:22;;;;;;;7.53;4.30;;;;;;;2.83;70.54;95483.88;5118998;23;20028;-85
2021/03/06 09:22:23;;;;;;;5.95;4.28;;;;;;;2.82;70.35;95478.81;5126565;23;20095;-85
2021/03/06 09:24:24;;;;;;;5.45;4.18;;;;;;;2.87;70.19;95484.53;5129623;23;20080;-85
2021/03/06 09:26:26;;;;;;;6.88;4.43;;;;;;;2.84;70.35;95474.38;5133541;23;20024;-84
2021/03/06 09:28:30;;;;;;;7.18;4.25;;;;;;;2.87;69.92;95481.94;5115295;23;20386;-73
2021/03/06 09:30:36;;;;;;;6.60;3.90;;;;;;;2.73;70.19;95485.38;5112631;23;20021;-72
2021/03/06 09:32:37;;;;;;;5.70;4.13;;;;;;;2.54;70.85;95482.19;5112545;23;20025;-74
2021/03/06 09:34:42;;;;;;;6.28;3.75;;;;;;;2.74;70.13;95487.03;5093603;23;20061;-84
2021/03/06 09:36:43;;;;;;;5.63;3.97;;;;;;;2.84;70.55;95484.72;5119476;23;20075;-88
2021/03/06 09:38:53;;;;;;;6.07;4.65;;;;;;;2.92;70.81;95485.06;5097684;23;20029;-85
2021/03/06 09:40:54;;;;;;;5.63;4.03;;;;;;;3.11;70.33;95477.00;5121130;23;20025;-87
2021/03/06 09:42:56;;;;;;;6.10;4.35;;;;;;;3.24;70.03;95482.25;5094843;23;20030;-88